createdAt,value
2023-04-02T00:00:34.665Z,83.6292
2023-04-02T00:01:35.450Z,83.8358
2023-04-02T00:02:36.317Z,83.8848
2023-04-02T00:03:37.347Z,83.6063
2023-04-02T00:04:38.229Z,83.2967
2023-04-02T00:05:39.029Z,83.3292
2023-04-02T00:06:39.842Z,83.4606
2023-04-02T00:07:40.669Z,83.1948
2023-04-02T00:08:41.520Z,82.6802
2023-04-02T00:09:42.424Z,82.1323
2023-04-02T00:10:43.196Z,82.2040
2023-04-02T00:11:43.962Z,82.9453
2023-04-02T00:12:44.814Z,83.2803
2023-04-02T00:13:46.655Z,82.8596
2023-04-02T00:14:47.581Z,83.1069
2023-04-02T00:15:48.378Z,83.0151
2023-04-02T00:16:49.246Z,82.8786
2023-04-02T00:17:50.230Z,83.1293
2023-04-02T00:18:50.988Z,83.3713
2023-04-02T00:19:51.810Z,83.2615
2023-04-02T00:20:52.615Z,82.9779
2023-04-02T00:21:53.608Z,82.7796
2023-04-02T00:22:54.401Z,82.5101
2023-04-02T00:23:55.222Z,82.7784
2023-04-02T00:24:56.065Z,83.0546
2023-04-02T00:25:57.042Z,83.2781
2023-04-02T00:26:57.943Z,83.2908
2023-04-02T00:27:58.720Z,83.5833
2023-04-02T00:28:59.523Z,83.8868
2023-04-02T00:30:00.418Z,84.1468
2023-04-02T00:31:01.242Z,84.3322
2023-04-02T00:32:02.139Z,84.7991
2023-04-02T00:33:03.078Z,85.1954
2023-04-02T00:34:03.924Z,85.6365
2023-04-02T00:35:04.813Z,86.2551
2023-04-02T00:36:05.643Z,86.7010
2023-04-02T00:37:06.473Z,86.0766
2023-04-02T00:38:07.342Z,86.6407
2023-04-02T00:39:08.111Z,86.8673
2023-04-02T00:40:08.914Z,86.7454
2023-04-02T00:41:09.766Z,86.2803
2023-04-02T00:42:10.582Z,86.2706
2023-04-02T00:43:11.413Z,86.5952
2023-04-02T00:44:12.253Z,86.6170
2023-04-02T00:45:13.074Z,86.7967
2023-04-02T00:46:13.965Z,86.8994
2023-04-02T00:47:14.953Z,87.1154
2023-04-02T00:48:15.778Z,86.8488
2023-04-02T00:49:16.658Z,86.9184
2023-04-02T00:50:17.561Z,86.9913
2023-04-02T00:51:18.412Z,87.1500
2023-04-02T00:52:19.238Z,86.9368
2023-04-02T00:53:20.082Z,87.0204
2023-04-02T00:54:20.925Z,87.2525
2023-04-02T00:55:21.803Z,87.3167
2023-04-02T00:56:22.701Z,87.2550
2023-04-02T00:57:23.676Z,87.3310
2023-04-02T00:58:24.624Z,87.4613
2023-04-02T00:59:25.485Z,87.5377
2023-04-02T01:00:26.531Z,87.1077
2023-04-02T01:01:27.622Z,86.9948
2023-04-02T01:02:29.241Z,87.1694
2023-04-02T01:03:31.169Z,87.3348
2023-04-02T01:04:32.366Z,87.1666
2023-04-02T01:05:34.083Z,87.3385
2023-04-02T01:06:35.423Z,87.4427
2023-04-02T01:07:36.237Z,87.2956
2023-04-02T01:08:37.047Z,87.1175
2023-04-02T01:09:37.933Z,87.1596
2023-04-02T01:10:39.089Z,87.0206
2023-04-02T01:11:40.045Z,87.0509
2023-04-02T01:12:40.981Z,86.9057
2023-04-02T01:13:41.886Z,86.4149
2023-04-02T01:14:42.733Z,86.4405
2023-04-02T01:15:43.682Z,86.6990
2023-04-02T01:16:44.480Z,86.6339
2023-04-02T01:17:45.493Z,86.6437
2023-04-02T01:18:46.407Z,86.6600
2023-04-02T01:19:47.362Z,86.7778
2023-04-02T01:20:48.309Z,86.5909
2023-04-02T01:21:49.200Z,86.2662
2023-04-02T01:22:50.082Z,86.1132
2023-04-02T01:23:50.892Z,86.4411
2023-04-02T01:24:51.725Z,86.8382
2023-04-02T01:25:52.572Z,86.5105
2023-04-02T01:26:53.409Z,86.0930
2023-04-02T01:27:54.236Z,86.3070
2023-04-02T01:28:55.306Z,86.0759
2023-04-02T01:29:56.203Z,86.0685
2023-04-02T01:30:57.122Z,85.9807
2023-04-02T01:31:57.907Z,85.8639
2023-04-02T01:32:58.788Z,85.9420
2023-04-02T01:33:59.941Z,85.9871
2023-04-02T01:35:00.740Z,86.1768
2023-04-02T01:36:01.725Z,86.2257
2023-04-02T01:37:02.554Z,86.0946
2023-04-02T01:38:03.339Z,86.1953
2023-04-02T01:39:04.141Z,86.3941
2023-04-02T01:40:04.945Z,86.4622
2023-04-02T01:41:05.728Z,86.3927
2023-04-02T01:42:06.551Z,86.4617
2023-04-02T01:43:08.416Z,86.5687
2023-04-02T01:44:09.213Z,86.3377
2023-04-02T01:45:10.125Z,86.1913
2023-04-02T01:46:10.988Z,86.5682
2023-04-02T01:47:11.849Z,86.4409
2023-04-02T01:48:12.646Z,85.7221
2023-04-02T01:49:13.537Z,85.7451
2023-04-02T01:50:14.421Z,85.6060
2023-04-02T01:51:15.364Z,85.0706
2023-04-02T01:52:16.223Z,85.1267
2023-04-02T01:53:18.080Z,85.2975
2023-04-02T01:54:18.897Z,85.2415
2023-04-02T01:55:19.918Z,85.1159
2023-04-02T01:56:20.747Z,85.0686
2023-04-02T01:57:21.752Z,84.9562
2023-04-02T01:58:22.557Z,84.8507
2023-04-02T01:59:23.468Z,84.5619
2023-04-02T02:00:24.336Z,84.5793
2023-04-02T02:01:25.315Z,84.7592
2023-04-02T02:02:26.244Z,85.2217
2023-04-02T02:03:27.034Z,85.1831
2023-04-02T02:04:27.948Z,84.8244
2023-04-02T02:05:28.823Z,84.8138
2023-04-02T02:06:29.669Z,84.9345
2023-04-02T02:07:30.514Z,85.1196
2023-04-02T02:08:31.310Z,85.3369
2023-04-02T02:09:32.123Z,85.2782
2023-04-02T02:10:32.927Z,85.2303
2023-04-02T02:11:33.778Z,85.4011
2023-04-02T02:12:34.588Z,85.1521
2023-04-02T02:13:35.420Z,85.1113
2023-04-02T02:14:36.263Z,85.1200
2023-04-02T02:15:37.642Z,85.2359
2023-04-02T02:16:38.644Z,85.3869
2023-04-02T02:17:39.488Z,85.0221
2023-04-02T02:18:40.308Z,84.8421
2023-04-02T02:19:41.137Z,84.8563
2023-04-02T02:20:42.076Z,85.0398
2023-04-02T02:21:42.884Z,85.0894
2023-04-02T02:22:43.770Z,85.1349
2023-04-02T02:23:44.611Z,85.2506
2023-04-02T02:24:45.432Z,85.5371
2023-04-02T02:25:46.282Z,85.5038
2023-04-02T02:26:47.087Z,85.2139
2023-04-02T02:27:47.995Z,84.2715
2023-04-02T02:28:48.775Z,84.3387
2023-04-02T02:29:49.724Z,84.6020
2023-04-02T02:30:50.571Z,84.9731
2023-04-02T02:31:51.545Z,84.4823
2023-04-02T02:32:52.492Z,84.2575
2023-04-02T02:33:53.347Z,84.1259
2023-04-02T02:34:54.184Z,84.2345
2023-04-02T02:35:55.149Z,84.3696
2023-04-02T02:36:56.051Z,84.6994
2023-04-02T02:37:56.893Z,84.0250
2023-04-02T02:38:57.825Z,83.5277
2023-04-02T02:39:58.668Z,83.8617
2023-04-02T02:40:59.513Z,84.0914
2023-04-02T02:42:00.362Z,83.4806
2023-04-02T02:43:01.191Z,83.8265
2023-04-02T02:44:02.037Z,83.3213
2023-04-02T02:45:02.894Z,83.3189
2023-04-02T02:46:03.842Z,83.5914
2023-04-02T02:47:04.607Z,83.4957
2023-04-02T02:48:05.493Z,83.7325
2023-04-02T02:49:06.353Z,83.5122
2023-04-02T02:50:07.184Z,83.3431
2023-04-02T02:51:08.001Z,83.4792
2023-04-02T02:52:08.948Z,83.6959
2023-04-02T02:53:09.778Z,83.6609
2023-04-02T02:54:10.572Z,83.8238
2023-04-02T02:55:11.431Z,84.0388
2023-04-02T02:56:12.256Z,83.6990
2023-04-02T02:57:13.212Z,83.7998
2023-04-02T02:58:14.030Z,84.1111
2023-04-02T02:59:14.904Z,83.8570
2023-04-02T03:00:15.787Z,83.9971
2023-04-02T03:01:16.690Z,83.9545
2023-04-02T03:02:17.597Z,83.8173
2023-04-02T03:03:18.854Z,83.4056
2023-04-02T03:04:19.987Z,83.2532
2023-04-02T03:05:20.881Z,83.2645
2023-04-02T03:06:21.740Z,83.1588
2023-04-02T03:07:22.608Z,83.3700
2023-04-02T03:08:23.436Z,83.5476
2023-04-02T03:09:24.295Z,83.6046
2023-04-02T03:10:25.144Z,83.2647
2023-04-02T03:11:26.029Z,83.1989
2023-04-02T03:12:26.870Z,83.4216
2023-04-02T03:13:27.794Z,83.1787
2023-04-02T03:14:28.637Z,83.3122
2023-04-02T03:15:29.541Z,83.5492
2023-04-02T03:16:30.345Z,83.6129
2023-04-02T03:17:31.164Z,83.9316
2023-04-02T03:18:31.996Z,84.0434
2023-04-02T03:19:32.790Z,83.7846
2023-04-02T03:20:33.649Z,83.9047
2023-04-02T03:21:34.509Z,83.3251
2023-04-02T03:22:35.380Z,83.1421
2023-04-02T03:23:36.268Z,83.3864
2023-04-02T03:24:37.113Z,83.4398
2023-04-02T03:25:38.026Z,83.1804
2023-04-02T03:26:38.853Z,83.3805
2023-04-02T03:27:39.696Z,83.2288
2023-04-02T03:28:40.529Z,83.0962
2023-04-02T03:29:41.415Z,83.1134
2023-04-02T03:30:42.272Z,83.2148
2023-04-02T03:31:43.206Z,83.5580
2023-04-02T03:32:44.030Z,83.5485
2023-04-02T03:33:44.920Z,83.4652
2023-04-02T03:34:45.786Z,83.2861
2023-04-02T03:35:46.671Z,83.2434
2023-04-02T03:36:47.520Z,83.2345
2023-04-02T03:37:48.359Z,83.1394
2023-04-02T03:38:49.240Z,83.2601
2023-04-02T03:39:50.100Z,83.4613
2023-04-02T03:40:50.918Z,83.3466
2023-04-02T03:41:51.744Z,83.5755
2023-04-02T03:42:52.625Z,83.6803
2023-04-02T03:43:53.452Z,83.3796
2023-04-02T03:44:54.292Z,83.8029
2023-04-02T03:45:55.155Z,83.2014
2023-04-02T03:46:56.068Z,83.2540
2023-04-02T03:47:56.996Z,83.8174
2023-04-02T03:48:57.834Z,83.4913
2023-04-02T03:49:58.647Z,83.8337
2023-04-02T03:50:59.541Z,83.8760
2023-04-02T03:52:00.445Z,83.8521
2023-04-02T03:53:01.329Z,83.8097
2023-04-02T03:54:02.145Z,84.0880
2023-04-02T03:55:02.931Z,84.3039
2023-04-02T03:56:03.698Z,84.2227
2023-04-02T03:57:04.627Z,84.4881
2023-04-02T03:58:05.449Z,84.4780
2023-04-02T03:59:06.315Z,84.3860
2023-04-02T04:00:07.158Z,84.4325
2023-04-02T04:01:07.982Z,84.7128
2023-04-02T04:02:08.870Z,84.6264
2023-04-02T04:03:09.828Z,84.7927
2023-04-02T04:04:11.147Z,84.6219
2023-04-02T04:05:12.009Z,84.6290
2023-04-02T04:06:12.980Z,84.1250
2023-04-02T04:07:13.889Z,84.2579
2023-04-02T04:08:14.752Z,83.7093
2023-04-02T04:09:15.607Z,81.6678
2023-04-02T04:10:16.455Z,80.7771
2023-04-02T04:11:17.366Z,81.1445
2023-04-02T04:12:18.189Z,81.1709
2023-04-02T04:13:19.041Z,81.0698
2023-04-02T04:14:19.915Z,80.7016
2023-04-02T04:15:20.809Z,80.8942
2023-04-02T04:16:21.726Z,81.0756
2023-04-02T04:17:23.559Z,81.2788
2023-04-02T04:18:24.391Z,81.3531
2023-04-02T04:19:25.211Z,81.0719
2023-04-02T04:20:26.074Z,80.5767
2023-04-02T04:21:26.926Z,80.9547
2023-04-02T04:22:27.781Z,80.7500
2023-04-02T04:23:28.600Z,80.8062
2023-04-02T04:24:29.442Z,81.1141
2023-04-02T04:25:30.511Z,81.4092
2023-04-02T04:26:31.428Z,81.1664
2023-04-02T04:27:32.306Z,81.0611
2023-04-02T04:28:33.251Z,81.0715
2023-04-02T04:29:34.098Z,81.3274
2023-04-02T04:30:35.017Z,81.2343
2023-04-02T04:31:35.881Z,81.5019
2023-04-02T04:32:36.761Z,81.4986
2023-04-02T04:33:37.581Z,82.0123
2023-04-02T04:34:38.437Z,81.9476
2023-04-02T04:35:40.415Z,81.7326
2023-04-02T04:36:39.451Z,81.5476
2023-04-02T04:37:43.405Z,81.7219
2023-04-02T04:38:42.032Z,81.6241
2023-04-02T04:39:42.882Z,81.3957
2023-04-02T04:40:43.678Z,81.3895
2023-04-02T04:41:44.651Z,81.3348
2023-04-02T04:42:45.477Z,81.5449
2023-04-02T04:43:46.362Z,81.5357
2023-04-02T04:44:47.154Z,81.2732
2023-04-02T04:45:48.216Z,81.0401
2023-04-02T04:46:49.014Z,81.1028
2023-04-02T04:47:50.016Z,81.0494
2023-04-02T04:48:50.785Z,80.7211
2023-04-02T04:49:51.638Z,81.0446
2023-04-02T04:50:52.584Z,81.1263
2023-04-02T04:51:53.436Z,80.9969
2023-04-02T04:52:55.316Z,80.6900
2023-04-02T04:53:56.180Z,80.8620
2023-04-02T04:54:56.981Z,80.8429
2023-04-02T04:56:18.093Z,81.1527
2023-04-02T04:56:59.367Z,81.2465
2023-04-02T04:58:00.254Z,81.2730
2023-04-02T04:59:01.061Z,80.7996
2023-04-02T05:00:01.886Z,80.6954
2023-04-02T05:01:02.760Z,80.7773
2023-04-02T05:02:03.663Z,80.9967
2023-04-02T05:03:04.567Z,80.9403
2023-04-02T05:04:05.359Z,81.1385
2023-04-02T05:05:06.199Z,81.2545
2023-04-02T05:06:07.018Z,81.4203
2023-04-02T05:07:07.869Z,81.1804
2023-04-02T05:08:08.700Z,81.4835
2023-04-02T05:09:09.581Z,81.5541
2023-04-02T05:10:10.345Z,80.8756
2023-04-02T05:11:11.211Z,80.6037
2023-04-02T05:12:12.115Z,80.9418
2023-04-02T05:13:13.014Z,80.9079
2023-04-02T05:14:13.811Z,81.0172
2023-04-02T05:15:15.717Z,81.0488
2023-04-02T05:16:16.622Z,81.1595
2023-04-02T05:17:17.424Z,81.1373
2023-04-02T05:18:18.248Z,81.1144
2023-04-02T05:19:19.275Z,80.9623
2023-04-02T05:20:20.048Z,81.0225
2023-04-02T05:21:20.863Z,80.7305
2023-04-02T05:22:21.708Z,81.0294
2023-04-02T05:23:22.497Z,81.0195
2023-04-02T05:24:23.339Z,81.0563
2023-04-02T05:25:24.154Z,80.9113
2023-04-02T05:26:24.989Z,80.9920
2023-04-02T05:27:25.898Z,81.0516
2023-04-02T05:28:26.734Z,81.0723
2023-04-02T05:29:27.678Z,80.9424
2023-04-02T05:30:28.484Z,80.3312
2023-04-02T05:31:29.374Z,79.7688
2023-04-02T05:32:30.199Z,79.8613
2023-04-02T05:33:31.069Z,80.0535
2023-04-02T05:34:31.888Z,80.5030
2023-04-02T05:35:32.798Z,80.4856
2023-04-02T05:36:33.598Z,80.6798
2023-04-02T05:37:34.506Z,80.4230
2023-04-02T05:38:35.395Z,80.1127
2023-04-02T05:39:36.211Z,80.3488
2023-04-02T05:40:37.123Z,80.1654
2023-04-02T05:41:37.973Z,80.2853
2023-04-02T05:42:38.783Z,80.4434
2023-04-02T05:43:39.583Z,80.1254
2023-04-02T05:44:40.396Z,80.0731
2023-04-02T05:45:41.258Z,80.2441
2023-04-02T05:46:42.098Z,80.4299
2023-04-02T05:47:43.027Z,80.4508
2023-04-02T05:48:43.865Z,80.2530
2023-04-02T05:49:44.682Z,80.3324
2023-04-02T05:50:45.460Z,80.3332
2023-04-02T05:51:46.308Z,80.4299
2023-04-02T05:52:47.183Z,80.6247
2023-04-02T05:53:47.982Z,80.4218
2023-04-02T05:54:48.932Z,80.3857
2023-04-02T05:55:49.788Z,80.3177
2023-04-02T05:56:50.682Z,80.4691
2023-04-02T05:58:21.336Z,80.1243
2023-04-02T05:58:53.099Z,80.1841
2023-04-02T05:59:53.901Z,80.4253
2023-04-02T06:00:54.771Z,80.1850
2023-04-02T06:01:55.637Z,80.0919
2023-04-02T06:02:56.551Z,79.8325
2023-04-02T06:03:58.274Z,79.8728
2023-04-02T06:04:59.111Z,80.0048
2023-04-02T06:05:59.944Z,80.1276
2023-04-02T06:07:01.856Z,80.1804
2023-04-02T06:08:02.687Z,80.4058
2023-04-02T06:09:03.561Z,80.1551
2023-04-02T06:10:04.364Z,80.2391
2023-04-02T06:11:05.236Z,80.3663
2023-04-02T06:12:06.107Z,80.2398
2023-04-02T06:13:06.978Z,80.3612
2023-04-02T06:14:07.787Z,80.2163
2023-04-02T06:15:08.609Z,80.0102
2023-04-02T06:16:09.428Z,79.9676
2023-04-02T06:17:10.245Z,79.9570
2023-04-02T06:18:11.110Z,80.1052
2023-04-02T06:19:12.013Z,80.0731
2023-04-02T06:20:12.789Z,80.0133
2023-04-02T06:21:13.531Z,79.5071
2023-04-02T06:22:14.295Z,79.7248
2023-04-02T06:23:15.049Z,79.6640
2023-04-02T06:24:15.881Z,80.0484
2023-04-02T06:25:16.729Z,79.5224
2023-04-02T06:26:17.597Z,79.4576
2023-04-02T06:27:18.463Z,79.1278
2023-04-02T06:28:19.240Z,79.4910
2023-04-02T06:29:20.054Z,79.6598
2023-04-02T06:30:20.854Z,79.0966
2023-04-02T06:31:21.697Z,78.4839
2023-04-02T06:32:22.551Z,78.7411
2023-04-02T06:33:23.354Z,78.8208
2023-04-02T06:34:24.154Z,79.1691
2023-04-02T06:35:24.966Z,78.9995
2023-04-02T06:36:25.802Z,79.4554
2023-04-02T06:37:26.574Z,79.0567
2023-04-02T06:38:27.406Z,79.3196
2023-04-02T06:39:28.231Z,79.2293
2023-04-02T06:40:29.048Z,78.8920
2023-04-02T06:41:29.822Z,78.1472
2023-04-02T06:42:30.620Z,78.4158
2023-04-02T06:43:31.466Z,78.5732
2023-04-02T06:44:32.466Z,78.9504
2023-04-02T06:45:33.638Z,78.9429
2023-04-02T06:46:34.780Z,78.7345
2023-04-02T06:47:35.641Z,78.7103
2023-04-02T06:48:36.461Z,78.5134
2023-04-02T06:49:37.269Z,78.3599
2023-04-02T06:50:38.059Z,78.1838
2023-04-02T06:51:38.906Z,78.1396
2023-04-02T06:52:39.712Z,78.1560
2023-04-02T06:53:40.542Z,78.4315
2023-04-02T06:54:42.387Z,78.3176
2023-04-02T06:55:43.157Z,78.4759
2023-04-02T06:56:43.968Z,78.2786
2023-04-02T06:57:44.995Z,78.4507
2023-04-02T06:58:46.943Z,78.2663
2023-04-02T06:59:47.824Z,78.1451
2023-04-02T07:00:48.611Z,77.7315
2023-04-02T07:01:49.592Z,77.5568
2023-04-02T07:02:50.458Z,77.6774
2023-04-02T07:03:51.265Z,77.6949
2023-04-02T07:04:52.192Z,77.4400
2023-04-02T07:05:54.048Z,77.1670
2023-04-02T07:06:54.946Z,76.7645
2023-04-02T07:07:55.768Z,76.8091
2023-04-02T07:08:56.561Z,76.6109
2023-04-02T07:09:57.375Z,76.5168
2023-04-02T07:10:58.130Z,76.5018
2023-04-02T07:11:58.913Z,76.7462
2023-04-02T07:12:59.725Z,77.1272
2023-04-02T07:14:00.603Z,76.4490
2023-04-02T07:15:01.380Z,76.2490
2023-04-02T07:16:02.824Z,76.6659
2023-04-02T07:17:03.736Z,76.5025
2023-04-02T07:18:05.015Z,76.1874
2023-04-02T07:19:06.035Z,76.4470
2023-04-02T07:20:06.863Z,76.3790
2023-04-02T07:21:11.005Z,76.7931
2023-04-02T07:22:11.406Z,76.9845
2023-04-02T07:23:17.037Z,76.7670
2023-04-02T07:24:13.424Z,76.4181
2023-04-02T07:25:14.251Z,76.1444
2023-04-02T07:26:15.091Z,75.8391
2023-04-02T07:27:15.909Z,75.6844
2023-04-02T07:28:16.801Z,75.9339
2023-04-02T07:29:17.596Z,75.3958
2023-04-02T07:30:18.361Z,75.6949
2023-04-02T07:31:19.226Z,75.3724
2023-04-02T07:32:19.979Z,74.9614
2023-04-02T07:33:20.814Z,75.3629
2023-04-02T07:34:21.656Z,75.3825
2023-04-02T07:35:22.401Z,75.1939
2023-04-02T07:36:23.497Z,75.0790
2023-04-02T07:37:24.287Z,74.7784
2023-04-02T07:38:25.179Z,74.9703
2023-04-02T07:39:25.975Z,74.5932
2023-04-02T07:40:26.776Z,74.8405
2023-04-02T07:41:27.531Z,74.4351
2023-04-02T07:42:28.298Z,74.4284
2023-04-02T07:43:29.192Z,74.6817
2023-04-02T07:44:30.041Z,74.5779
2023-04-02T07:45:30.884Z,74.4665
2023-04-02T07:46:31.720Z,74.8388
2023-04-02T07:47:33.716Z,74.5840
2023-04-02T07:48:34.447Z,74.2520
2023-04-02T07:49:35.292Z,73.7389
2023-04-02T07:50:36.080Z,72.7066
2023-04-02T07:51:36.845Z,72.5860
2023-04-02T07:52:40.759Z,72.1992
2023-04-02T07:53:39.273Z,72.3117
2023-04-02T07:54:40.064Z,72.3417
2023-04-02T07:55:40.834Z,71.8165
2023-04-02T07:56:41.555Z,71.2545
2023-04-02T07:57:46.788Z,70.7934
2023-04-02T07:58:43.351Z,70.9339
2023-04-02T07:59:44.117Z,71.5433
2023-04-02T08:00:44.863Z,70.8274
2023-04-02T08:01:45.627Z,71.9324
2023-04-02T08:02:46.405Z,73.2347
2023-04-02T08:03:47.406Z,73.0269
2023-04-02T08:04:48.168Z,73.1112
2023-04-02T08:05:48.968Z,73.4616
2023-04-02T08:06:49.724Z,73.6269
2023-04-02T08:07:50.513Z,73.2897
2023-04-02T08:08:51.312Z,73.5545
2023-04-02T08:09:52.082Z,73.6801
2023-04-02T08:10:52.865Z,74.0401
2023-04-02T08:11:53.641Z,74.0893
2023-04-02T08:12:54.486Z,74.0221
2023-04-02T08:13:55.280Z,73.8454
2023-04-02T08:14:56.022Z,73.1407
2023-04-02T08:15:56.775Z,74.2580
2023-04-02T08:16:57.737Z,74.6595
2023-04-02T08:17:58.624Z,74.6059
2023-04-02T08:18:59.496Z,73.9818
2023-04-02T08:20:00.295Z,73.4142
2023-04-02T08:21:01.018Z,73.3548
2023-04-02T08:22:02.065Z,73.4862
2023-04-02T08:23:02.829Z,73.8816
2023-04-02T08:24:03.582Z,74.0287
2023-04-02T08:25:04.372Z,74.5710
2023-04-02T08:26:05.115Z,74.1334
2023-04-02T08:27:05.878Z,73.9557
2023-04-02T08:28:06.593Z,74.4609
2023-04-02T08:29:07.384Z,73.6485
2023-04-02T08:30:08.105Z,74.0081
2023-04-02T08:31:08.895Z,73.3575
2023-04-02T08:32:09.637Z,73.4256
2023-04-02T08:33:10.412Z,73.1359
2023-04-02T08:34:11.181Z,73.5073
2023-04-02T08:35:11.913Z,73.6307
2023-04-02T08:36:12.706Z,73.1410
2023-04-02T08:37:13.430Z,72.9047
2023-04-02T08:38:14.174Z,73.0258
2023-04-02T08:39:15.163Z,73.8281
2023-04-02T08:40:15.964Z,73.2569
2023-04-02T08:41:16.689Z,73.3389
2023-04-02T08:42:17.429Z,73.4959
2023-04-02T08:43:18.147Z,73.8186
2023-04-02T08:44:18.890Z,73.1949
2023-04-02T08:45:25.812Z,73.2224
2023-04-02T08:46:20.073Z,73.0743
2023-04-02T08:47:20.800Z,72.8641
2023-04-02T08:48:21.552Z,72.4946
2023-04-02T08:49:22.309Z,72.9888
2023-04-02T08:50:23.077Z,73.0164
2023-04-02T08:51:23.837Z,73.2565
2023-04-02T08:52:24.592Z,72.6407
2023-04-02T08:53:25.297Z,73.1243
2023-04-02T08:54:26.083Z,72.8931
2023-04-02T08:55:26.867Z,73.3844
2023-04-02T08:56:27.595Z,73.2109
2023-04-02T08:57:28.447Z,72.4201
2023-04-02T08:58:29.311Z,72.6341
2023-04-02T08:59:30.071Z,72.6487
2023-04-02T09:00:30.853Z,72.4062
2023-04-02T09:01:31.701Z,71.5805
2023-04-02T09:02:32.546Z,71.3488
2023-04-02T09:03:33.306Z,71.3775
2023-04-02T09:04:34.071Z,71.7954
2023-04-02T09:05:35.367Z,72.1887
2023-04-02T09:06:36.250Z,72.3983
2023-04-02T09:07:37.006Z,72.4820
2023-04-02T09:08:37.777Z,72.7572
2023-04-02T09:09:38.483Z,72.9917
2023-04-02T09:10:39.409Z,73.0248
2023-04-02T09:11:40.134Z,72.4632
2023-04-02T09:12:42.576Z,72.0844
2023-04-02T09:13:41.100Z,72.1844
2023-04-02T09:14:41.853Z,71.3833
2023-04-02T09:15:42.703Z,70.8519
2023-04-02T09:16:43.401Z,71.6129
2023-04-02T09:17:54.147Z,71.4674
2023-04-02T09:18:44.317Z,71.4080
2023-04-02T09:19:44.996Z,70.8674
2023-04-02T09:20:45.729Z,70.4921
2023-04-02T09:21:46.736Z,70.3583
2023-04-02T09:22:47.458Z,70.2395
2023-04-02T09:23:48.182Z,70.0985
2023-04-02T09:24:48.907Z,69.8941
2023-04-02T09:26:04.025Z,69.3377
2023-04-02T09:26:51.009Z,69.8458
2023-04-02T09:27:51.717Z,70.5327
2023-04-02T09:28:52.468Z,69.7882
2023-04-02T09:29:53.145Z,70.2917
2023-04-02T09:30:53.864Z,70.3630
2023-04-02T09:31:54.669Z,70.9167
2023-04-02T09:32:55.466Z,70.0572
2023-04-02T09:33:56.220Z,70.0472
2023-04-02T09:34:56.959Z,70.4353
2023-04-02T09:35:58.117Z,70.2726
2023-04-02T09:36:58.894Z,70.0694
2023-04-02T09:37:59.600Z,70.2186
2023-04-02T09:39:00.336Z,69.8469
2023-04-02T09:40:01.041Z,69.7372
2023-04-02T09:41:01.823Z,70.8620
2023-04-02T09:42:06.299Z,70.6970
2023-04-02T09:43:02.539Z,71.0396
2023-04-02T09:44:03.362Z,70.4291
2023-04-02T09:45:04.170Z,69.1722
2023-04-02T09:46:05.014Z,69.6270
2023-04-02T09:47:06.072Z,69.8072
2023-04-02T09:48:06.852Z,69.3746
2023-04-02T09:49:07.570Z,69.2107
2023-04-02T09:50:08.293Z,69.5243
2023-04-02T09:51:09.035Z,69.3304
2023-04-02T09:52:09.800Z,69.3265
2023-04-02T09:53:10.484Z,69.0030
2023-04-02T09:54:11.199Z,68.3596
2023-04-02T09:55:11.998Z,68.6746
2023-04-02T09:56:12.743Z,68.9915
2023-04-02T09:57:13.625Z,68.7746
2023-04-02T09:58:14.318Z,69.2138
2023-04-02T09:59:15.051Z,69.0996
2023-04-02T10:00:31.618Z,69.0568
2023-04-02T10:01:17.305Z,68.8720
2023-04-02T10:02:18.066Z,68.6625
2023-04-02T10:03:18.806Z,67.7002
2023-04-02T10:04:19.645Z,67.3459
2023-04-02T10:05:39.245Z,67.3816
2023-04-02T10:06:21.810Z,66.7213
2023-04-02T10:07:22.483Z,66.6588
2023-04-02T10:08:23.250Z,67.3698
2023-04-02T10:09:24.005Z,66.8456
2023-04-02T10:10:26.811Z,66.2829
2023-04-02T10:11:43.625Z,66.9594
2023-04-02T10:12:26.734Z,67.0362
2023-04-02T10:13:27.438Z,66.8426
2023-04-02T10:14:28.186Z,66.2840
2023-04-02T10:15:28.906Z,66.3229
2023-04-02T10:16:29.861Z,65.7638
2023-04-02T10:17:30.648Z,66.2065
2023-04-02T10:18:31.342Z,65.9414
2023-04-02T10:19:32.118Z,66.0800
2023-04-02T10:20:50.464Z,66.4068
2023-04-02T10:21:34.233Z,66.1855
2023-04-02T10:22:34.929Z,66.2282
2023-04-02T10:23:35.671Z,66.5613
2023-04-02T10:24:36.420Z,66.2489
2023-04-02T10:25:37.636Z,66.1568
2023-04-02T10:26:38.450Z,66.3498
2023-04-02T10:27:39.146Z,66.6105
2023-04-02T10:28:39.832Z,66.4820
2023-04-02T10:29:40.583Z,65.4435
2023-04-02T10:30:41.306Z,66.0653
2023-04-02T10:31:42.022Z,65.8959
2023-04-02T10:32:42.717Z,65.6261
2023-04-02T10:33:43.415Z,65.9499
2023-04-02T10:34:44.126Z,66.1673
2023-04-02T10:35:44.857Z,66.8017
2023-04-02T10:36:45.570Z,66.7770
2023-04-02T10:37:46.302Z,66.5038
2023-04-02T10:38:46.975Z,66.2892
2023-04-02T10:39:47.665Z,66.0998
2023-04-02T10:40:48.375Z,66.4395
2023-04-02T10:41:49.088Z,67.2538
2023-04-02T10:42:49.762Z,66.8725
2023-04-02T10:43:50.505Z,67.4769
2023-04-02T10:44:51.194Z,67.6769
2023-04-02T10:45:51.891Z,67.0392
2023-04-02T10:46:52.563Z,65.2882
2023-04-02T10:47:53.376Z,65.1489
2023-04-02T10:48:54.040Z,65.3583
2023-04-02T10:49:54.744Z,65.3452
2023-04-02T10:50:55.483Z,64.8090
2023-04-02T10:51:56.218Z,64.2923
2023-04-02T10:52:57.088Z,64.4490
2023-04-02T10:53:57.814Z,64.5365
2023-04-02T10:54:58.525Z,64.3963
2023-04-02T10:55:59.246Z,62.9353
2023-04-02T10:56:59.922Z,62.5866
2023-04-02T10:58:00.558Z,62.5006
2023-04-02T10:59:01.222Z,62.8212
2023-04-02T11:00:02.030Z,62.2891
2023-04-02T11:01:02.747Z,62.2785
2023-04-02T11:02:03.584Z,62.5628
2023-04-02T11:03:04.837Z,62.6273
2023-04-02T11:04:05.637Z,62.0509
2023-04-02T11:05:06.504Z,61.6139
2023-04-02T11:06:07.356Z,61.8658
2023-04-02T11:07:15.007Z,62.6991
2023-04-02T11:08:09.219Z,63.1010
2023-04-02T11:09:09.897Z,61.9453
2023-04-02T11:10:10.619Z,62.9026
2023-04-02T11:11:11.293Z,63.4203
2023-04-02T11:12:11.964Z,62.1052
2023-04-02T11:13:12.667Z,62.5358
2023-04-02T11:14:13.357Z,62.6563
2023-04-02T11:15:14.030Z,62.9818
2023-04-02T11:16:14.748Z,61.8943
2023-04-02T11:17:15.419Z,61.2592
2023-04-02T11:18:16.108Z,60.9871
2023-04-02T11:19:17.105Z,61.4349
2023-04-02T11:20:17.827Z,60.6191
2023-04-02T11:21:18.519Z,59.6113
2023-04-02T11:22:19.229Z,61.2593
2023-04-02T11:23:19.910Z,61.4417
2023-04-02T11:24:20.612Z,61.9360
2023-04-02T11:25:21.305Z,61.8566
2023-04-02T11:26:22.017Z,61.3234
2023-04-02T11:27:22.731Z,61.4261
2023-04-02T11:28:25.536Z,61.5530
2023-04-02T11:29:23.997Z,60.9546
2023-04-02T11:30:24.769Z,60.7693
2023-04-02T11:31:25.377Z,61.2434
2023-04-02T11:32:26.095Z,61.2291
2023-04-02T11:33:38.132Z,60.0776
2023-04-02T11:34:28.154Z,60.6172
2023-04-02T11:35:28.876Z,60.3261
2023-04-02T11:36:29.586Z,60.0319
2023-04-02T11:37:30.307Z,59.7561
2023-04-02T11:38:30.994Z,58.1905
2023-04-02T11:39:31.692Z,59.4810
2023-04-02T11:40:32.394Z,57.8372
2023-04-02T11:41:33.158Z,57.7605
2023-04-02T11:42:33.825Z,58.7607
2023-04-02T11:43:34.612Z,58.7348
2023-04-02T11:44:35.254Z,57.5352
2023-04-02T11:45:51.878Z,57.1549
2023-04-02T11:46:37.382Z,58.3273
2023-04-02T11:47:38.144Z,58.0501
2023-04-02T11:48:38.855Z,58.7034
2023-04-02T11:49:39.961Z,60.5757
2023-04-02T11:50:41.417Z,59.1331
2023-04-02T11:51:42.602Z,58.3323
2023-04-02T11:52:43.340Z,57.7161
2023-04-02T11:53:43.981Z,55.4016
2023-04-02T11:54:44.631Z,54.9810
2023-04-02T11:55:45.294Z,56.2466
2023-04-02T11:56:45.978Z,58.0618
2023-04-02T11:57:46.674Z,59.5900
2023-04-02T11:58:47.366Z,60.9360
2023-04-02T11:59:48.013Z,60.9966
2023-04-02T12:00:48.692Z,56.4226
2023-04-02T12:01:49.381Z,53.7853
2023-04-02T12:02:50.106Z,51.9431
2023-04-02T12:03:50.791Z,55.2500
2023-04-02T12:04:51.456Z,57.8566
2023-04-02T12:05:52.145Z,59.5185
2023-04-02T12:06:52.765Z,59.6462
2023-04-02T12:07:53.492Z,61.2116
2023-04-02T12:08:58.812Z,61.5673
2023-04-02T12:09:55.100Z,61.4560
2023-04-02T12:10:55.722Z,61.6280
2023-04-02T12:11:57.427Z,62.6864
2023-04-02T12:12:58.098Z,63.0677
2023-04-02T12:13:58.790Z,62.9287
2023-04-02T12:14:59.475Z,62.3030
2023-04-02T12:16:00.141Z,62.5802